sensor_id;sensor_type;location;lat;lon;timestamp;pressure;altitude;pressure_sealevel;temperature;humidity
32243;BME280;18731;42.830;24.390;2024-03-29T00:02:22;94239.38;;;8.59;62.75
32243;BME280;18731;42.830;24.390;2024-03-29T00:04:48;94245.00;;;8.66;62.68
32243;BME280;18731;42.830;24.390;2024-03-29T00:07:13;94226.78;;;8.47;64.27
32243;BME280;18731;42.830;24.390;2024-03-29T00:09:39;94214.63;;;8.37;62.66
32243;BME280;18731;42.830;24.390;2024-03-29T00:12:05;94214.44;;;8.43;61.77
32243;BME280;18731;42.830;24.390;2024-03-29T00:14:31;94234.53;;;8.61;61.82
32243;BME280;18731;42.830;24.390;2024-03-29T00:16:57;94243.28;;;8.23;64.67
32243;BME280;18731;42.830;24.390;2024-03-29T00:19:22;94231.13;;;8.05;63.37
32243;BME280;18731;42.830;24.390;2024-03-29T00:21:48;94251.88;;;8.20;63.59
32243;BME280;18731;42.830;24.390;2024-03-29T00:24:13;94248.47;;;8.11;64.99
32243;BME280;18731;42.830;24.390;2024-03-29T00:26:39;94256.44;;;8.11;63.63
32243;BME280;18731;42.830;24.390;2024-03-29T00:29:04;94256.75;;;8.10;63.80
32243;BME280;18731;42.830;24.390;2024-03-29T00:31:30;94229.75;;;7.99;64.95
32243;BME280;18731;42.830;24.390;2024-03-29T00:33:55;94233.00;;;8.04;63.87
32243;BME280;18731;42.830;24.390;2024-03-29T00:36:21;94219.56;;;8.01;63.67
32243;BME280;18731;42.830;24.390;2024-03-29T00:38:46;94252.66;;;8.21;64.91
32243;BME280;18731;42.830;24.390;2024-03-29T00:41:12;94241.88;;;8.17;65.30
32243;BME280;18731;42.830;24.390;2024-03-29T00:43:37;94229.09;;;8.02;64.97
32243;BME280;18731;42.830;24.390;2024-03-29T00:46:03;94242.53;;;8.14;65.00
32243;BME280;18731;42.830;24.390;2024-03-29T00:48:28;94240.50;;;8.11;64.96
32243;BME280;18731;42.830;24.390;2024-03-29T00:50:54;94249.56;;;8.10;64.67
32243;BME280;18731;42.830;24.390;2024-03-29T00:53:20;94247.25;;;8.00;65.99
32243;BME280;18731;42.830;24.390;2024-03-29T00:55:45;94243.78;;;8.08;65.95
32243;BME280;18731;42.830;24.390;2024-03-29T00:58:11;94244.72;;;8.12;65.88
32243;BME280;18731;42.830;24.390;2024-03-29T01:00:36;94251.19;;;7.94;66.64
32243;BME280;18731;42.830;24.390;2024-03-29T01:03:02;94242.56;;;7.97;65.49
32243;BME280;18731;42.830;24.390;2024-03-29T01:05:28;94225.88;;;7.88;65.84
32243;BME280;18731;42.830;24.390;2024-03-29T01:07:53;94217.13;;;7.70;65.74
32243;BME280;18731;42.830;24.390;2024-03-29T01:10:19;94241.81;;;7.88;65.65
32243;BME280;18731;42.830;24.390;2024-03-29T01:12:44;94247.13;;;7.88;64.32
32243;BME280;18731;42.830;24.390;2024-03-29T01:15:11;94270.88;;;7.93;65.88
32243;BME280;18731;42.830;24.390;2024-03-29T01:17:37;94276.97;;;7.85;66.11
32243;BME280;18731;42.830;24.390;2024-03-29T01:20:02;94276.53;;;7.83;64.92
32243;BME280;18731;42.830;24.390;2024-03-29T01:22:28;94264.00;;;7.92;64.49
32243;BME280;18731;42.830;24.390;2024-03-29T01:24:53;94265.72;;;7.88;66.39
32243;BME280;18731;42.830;24.390;2024-03-29T01:27:21;94263.84;;;7.97;66.12
32243;BME280;18731;42.830;24.390;2024-03-29T01:29:46;94253.06;;;7.85;65.50
32243;BME280;18731;42.830;24.390;2024-03-29T01:32:12;94272.91;;;7.79;67.69
32243;BME280;18731;42.830;24.390;2024-03-29T01:34:37;94277.75;;;7.85;66.17
32243;BME280;18731;42.830;24.390;2024-03-29T01:37:03;94283.41;;;7.84;65.63
32243;BME280;18731;42.830;24.390;2024-03-29T01:39:28;94286.81;;;7.93;65.10
32243;BME280;18731;42.830;24.390;2024-03-29T01:41:56;94294.78;;;7.93;64.92
32243;BME280;18731;42.830;24.390;2024-03-29T01:44:22;94284.16;;;7.93;65.19
32243;BME280;18731;42.830;24.390;2024-03-29T01:46:48;94294.00;;;7.92;65.79
32243;BME280;18731;42.830;24.390;2024-03-29T01:49:14;94271.19;;;7.83;65.66
32243;BME280;18731;42.830;24.390;2024-03-29T01:51:39;94275.09;;;7.68;66.39
32243;BME280;18731;42.830;24.390;2024-03-29T01:54:06;94301.66;;;7.94;65.89
32243;BME280;18731;42.830;24.390;2024-03-29T01:56:35;94289.34;;;7.81;66.29
32243;BME280;18731;42.830;24.390;2024-03-29T01:59:03;94316.34;;;8.00;65.99
32243;BME280;18731;42.830;24.390;2024-03-29T02:01:30;94319.03;;;7.91;65.19
32243;BME280;18731;42.830;24.390;2024-03-29T02:03:56;94315.13;;;7.89;64.98
32243;BME280;18731;42.830;24.390;2024-03-29T02:06:22;94332.47;;;7.95;65.51
32243;BME280;18731;42.830;24.390;2024-03-29T02:08:52;94329.97;;;7.90;65.63
32243;BME280;18731;42.830;24.390;2024-03-29T02:11:21;94344.19;;;8.02;65.02
32243;BME280;18731;42.830;24.390;2024-03-29T02:13:48;94349.97;;;8.04;64.47
32243;BME280;18731;42.830;24.390;2024-03-29T02:16:13;94317.28;;;7.78;65.00
32243;BME280;18731;42.830;24.390;2024-03-29T02:18:39;94359.97;;;7.82;66.45
32243;BME280;18731;42.830;24.390;2024-03-29T02:21:04;94366.38;;;7.81;66.42
32243;BME280;18731;42.830;24.390;2024-03-29T02:23:32;94367.59;;;7.74;67.53
32243;BME280;18731;42.830;24.390;2024-03-29T02:25:58;94365.41;;;7.77;67.05
32243;BME280;18731;42.830;24.390;2024-03-29T02:28:25;94373.84;;;7.79;66.18
32243;BME280;18731;42.830;24.390;2024-03-29T02:30:51;94364.78;;;7.62;66.54
32243;BME280;18731;42.830;24.390;2024-03-29T02:33:16;94380.72;;;7.62;67.76
32243;BME280;18731;42.830;24.390;2024-03-29T02:35:42;94385.88;;;7.67;67.17
32243;BME280;18731;42.830;24.390;2024-03-29T02:38:08;94394.47;;;7.64;67.78
32243;BME280;18731;42.830;24.390;2024-03-29T02:40:33;94391.50;;;7.57;67.56
32243;BME280;18731;42.830;24.390;2024-03-29T02:42:59;94390.41;;;7.58;66.53
32243;BME280;18731;42.830;24.390;2024-03-29T02:45:24;94396.34;;;7.55;67.59
32243;BME280;18731;42.830;24.390;2024-03-29T02:47:50;94391.03;;;7.55;67.40
32243;BME280;18731;42.830;24.390;2024-03-29T02:50:16;94384.63;;;7.48;67.39
32243;BME280;18731;42.830;24.390;2024-03-29T02:52:42;94406.94;;;7.47;67.57
32243;BME280;18731;42.830;24.390;2024-03-29T02:55:08;94397.88;;;7.39;67.34
32243;BME280;18731;42.830;24.390;2024-03-29T02:57:36;94417.44;;;7.52;68.02
32243;BME280;18731;42.830;24.390;2024-03-29T03:00:02;94417.72;;;7.50;68.18
32243;BME280;18731;42.830;24.390;2024-03-29T03:02:28;94424.75;;;7.46;68.14
32243;BME280;18731;42.830;24.390;2024-03-29T03:04:54;94429.78;;;7.56;67.72
32243;BME280;18731;42.830;24.390;2024-03-29T03:07:19;94433.53;;;7.55;67.75
32243;BME280;18731;42.830;24.390;2024-03-29T03:10:04;94438.84;;;7.55;67.60
32243;BME280;18731;42.830;24.390;2024-03-29T03:12:48;94434.78;;;7.58;68.04
32243;BME280;18731;42.830;24.390;2024-03-29T03:15:13;94451.50;;;7.58;67.58
32243;BME280;18731;42.830;24.390;2024-03-29T03:17:39;94449.91;;;7.49;68.30
32243;BME280;18731;42.830;24.390;2024-03-29T03:20:05;94453.97;;;7.46;68.37
32243;BME280;18731;42.830;24.390;2024-03-29T03:22:32;94452.88;;;7.47;68.20
32243;BME280;18731;42.830;24.390;2024-03-29T03:24:57;94458.31;;;7.42;68.55
32243;BME280;18731;42.830;24.390;2024-03-29T03:27:23;94457.09;;;7.48;68.46
32243;BME280;18731;42.830;24.390;2024-03-29T03:29:49;94463.34;;;7.52;68.42
32243;BME280;18731;42.830;24.390;2024-03-29T03:32:14;94471.31;;;7.52;68.78
32243;BME280;18731;42.830;24.390;2024-03-29T03:34:40;94477.28;;;7.58;69.20
32243;BME280;18731;42.830;24.390;2024-03-29T03:37:05;94480.09;;;7.61;69.39
32243;BME280;18731;42.830;24.390;2024-03-29T03:39:31;94483.84;;;7.60;69.16
32243;BME280;18731;42.830;24.390;2024-03-29T03:41:56;94471.47;;;7.47;68.90
32243;BME280;18731;42.830;24.390;2024-03-29T03:44:22;94485.69;;;7.51;69.20
32243;BME280;18731;42.830;24.390;2024-03-29T03:46:50;94482.25;;;7.51;68.91
32243;BME280;18731;42.830;24.390;2024-03-29T03:49:16;94489.44;;;7.50;68.82
32243;BME280;18731;42.830;24.390;2024-03-29T03:51:41;94477.84;;;7.37;68.84
32243;BME280;18731;42.830;24.390;2024-03-29T03:54:07;94491.94;;;7.47;69.18
32243;BME280;18731;42.830;24.390;2024-03-29T03:56:33;94495.03;;;7.40;68.77
32243;BME280;18731;42.830;24.390;2024-03-29T03:58:58;94473.91;;;7.26;68.59
32243;BME280;18731;42.830;24.390;2024-03-29T04:01:24;94499.44;;;7.53;68.76
32243;BME280;18731;42.830;24.390;2024-03-29T04:03:49;94505.81;;;7.43;69.03
32243;BME280;18731;42.830;24.390;2024-03-29T04:06:15;94505.13;;;7.29;69.69
32243;BME280;18731;42.830;24.390;2024-03-29T04:08:40;94513.91;;;7.38;69.35
32243;BME280;18731;42.830;24.390;2024-03-29T04:11:06;94516.53;;;7.30;70.01
32243;BME280;18731;42.830;24.390;2024-03-29T04:13:31;94520.28;;;7.29;70.38
32243;BME280;18731;42.830;24.390;2024-03-29T04:16:03;94520.28;;;7.29;69.31
32243;BME280;18731;42.830;24.390;2024-03-29T04:18:29;94531.25;;;7.36;69.10
32243;BME280;18731;42.830;24.390;2024-03-29T04:20:58;94538.00;;;7.42;69.53
32243;BME280;18731;42.830;24.390;2024-03-29T04:23:24;94508.22;;;7.23;70.39
32243;BME280;18731;42.830;24.390;2024-03-29T04:25:53;94538.91;;;7.37;70.63
32243;BME280;18731;42.830;24.390;2024-03-29T04:28:19;94555.34;;;7.48;70.42
32243;BME280;18731;42.830;24.390;2024-03-29T04:30:55;94573.59;;;7.41;69.72
32243;BME280;18731;42.830;24.390;2024-03-29T04:33:21;94581.56;;;7.41;69.13
32243;BME280;18731;42.830;24.390;2024-03-29T04:36:13;94582.34;;;7.41;69.12
32243;BME280;18731;42.830;24.390;2024-03-29T04:38:39;94577.94;;;7.37;69.90
32243;BME280;18731;42.830;24.390;2024-03-29T04:41:04;94587.47;;;7.38;70.20
32243;BME280;18731;42.830;24.390;2024-03-29T04:43:30;94596.88;;;7.44;69.75
32243;BME280;18731;42.830;24.390;2024-03-29T04:46:07;94594.22;;;7.44;69.64
32243;BME280;18731;42.830;24.390;2024-03-29T04:48:37;94595.09;;;7.31;69.53
32243;BME280;18731;42.830;24.390;2024-03-29T04:51:03;94587.25;;;7.26;69.97
32243;BME280;18731;42.830;24.390;2024-03-29T04:53:28;94599.31;;;7.32;69.64
32243;BME280;18731;42.830;24.390;2024-03-29T04:55:55;94602.31;;;7.39;69.29
32243;BME280;18731;42.830;24.390;2024-03-29T04:58:22;94601.53;;;7.38;70.20
32243;BME280;18731;42.830;24.390;2024-03-29T05:00:48;94611.38;;;7.38;70.13
32243;BME280;18731;42.830;24.390;2024-03-29T05:03:15;94613.00;;;7.48;70.68
32243;BME280;18731;42.830;24.390;2024-03-29T05:05:40;94612.44;;;7.59;70.83
32243;BME280;18731;42.830;24.390;2024-03-29T05:08:06;94622.53;;;7.80;70.32
32243;BME280;18731;42.830;24.390;2024-03-29T05:10:32;94621.31;;;7.86;70.78
32243;BME280;18731;42.830;24.390;2024-03-29T05:12:57;94633.84;;;7.94;70.84
32243;BME280;18731;42.830;24.390;2024-03-29T05:15:23;94634.97;;;8.01;70.78
32243;BME280;18731;42.830;24.390;2024-03-29T05:17:48;94604.75;;;7.89;71.02
32243;BME280;18731;42.830;24.390;2024-03-29T05:20:14;94639.81;;;8.39;70.35
32243;BME280;18731;42.830;24.390;2024-03-29T05:22:39;94632.78;;;8.43;69.50
32243;BME280;18731;42.830;24.390;2024-03-29T05:25:05;94649.25;;;8.71;68.82
32243;BME280;18731;42.830;24.390;2024-03-29T05:27:32;94602.59;;;8.48;68.79
32243;BME280;18731;42.830;24.390;2024-03-29T05:29:58;94644.56;;;8.85;68.53
32243;BME280;18731;42.830;24.390;2024-03-29T05:32:24;94651.00;;;9.01;68.27
32243;BME280;18731;42.830;24.390;2024-03-29T05:34:50;94644.56;;;9.20;68.07
32243;BME280;18731;42.830;24.390;2024-03-29T05:37:15;94647.38;;;9.32;67.50
32243;BME280;18731;42.830;24.390;2024-03-29T05:39:43;94657.97;;;9.58;66.72
32243;BME280;18731;42.830;24.390;2024-03-29T05:42:09;94651.03;;;9.83;65.83
32243;BME280;18731;42.830;24.390;2024-03-29T05:44:37;94662.50;;;10.21;65.25
32243;BME280;18731;42.830;24.390;2024-03-29T05:47:02;94663.50;;;10.46;64.75
32243;BME280;18731;42.830;24.390;2024-03-29T05:49:30;94661.72;;;10.59;62.45
32243;BME280;18731;42.830;24.390;2024-03-29T05:51:56;94666.22;;;10.67;62.90
32243;BME280;18731;42.830;24.390;2024-03-29T05:54:21;94667.22;;;10.83;62.67
32243;BME280;18731;42.830;24.390;2024-03-29T05:56:48;94671.53;;;10.97;61.42
32243;BME280;18731;42.830;24.390;2024-03-29T05:59:13;94674.59;;;11.07;61.41
32243;BME280;18731;42.830;24.390;2024-03-29T06:01:39;94668.00;;;11.05;61.32
32243;BME280;18731;42.830;24.390;2024-03-29T06:04:05;94678.81;;;11.29;60.44
32243;BME280;18731;42.830;24.390;2024-03-29T06:06:39;94674.75;;;11.44;60.41
32243;BME280;18731;42.830;24.390;2024-03-29T06:09:04;94673.06;;;11.39;59.20
32243;BME280;18731;42.830;24.390;2024-03-29T06:11:30;94670.44;;;11.51;59.79
32243;BME280;18731;42.830;24.390;2024-03-29T06:13:56;94674.06;;;11.68;58.61
32243;BME280;18731;42.830;24.390;2024-03-29T06:16:25;94673.28;;;11.67;58.41
32243;BME280;18731;42.830;24.390;2024-03-29T06:19:10;94679.81;;;11.78;59.24
32243;BME280;18731;42.830;24.390;2024-03-29T06:21:36;94678.53;;;11.76;58.08
32243;BME280;18731;42.830;24.390;2024-03-29T06:24:09;94681.75;;;11.90;58.67
32243;BME280;18731;42.830;24.390;2024-03-29T06:26:38;94686.38;;;12.26;58.53
32243;BME280;18731;42.830;24.390;2024-03-29T06:29:04;94679.78;;;12.72;58.56
32243;BME280;18731;42.830;24.390;2024-03-29T06:31:29;94679.53;;;13.14;58.43
32243;BME280;18731;42.830;24.390;2024-03-29T06:33:56;94680.31;;;13.55;57.33
32243;BME280;18731;42.830;24.390;2024-03-29T06:36:21;94667.09;;;13.90;55.88
32243;BME280;18731;42.830;24.390;2024-03-29T06:38:47;94675.44;;;14.32;55.85
32243;BME280;18731;42.830;24.390;2024-03-29T06:41:14;94673.09;;;14.62;54.45
32243;BME280;18731;42.830;24.390;2024-03-29T06:43:41;94677.53;;;15.05;54.03
32243;BME280;18731;42.830;24.390;2024-03-29T06:46:09;94681.81;;;15.44;53.17
32243;BME280;18731;42.830;24.390;2024-03-29T06:48:34;94665.59;;;15.76;52.96
32243;BME280;18731;42.830;24.390;2024-03-29T06:51:00;94690.28;;;16.24;51.46
32243;BME280;18731;42.830;24.390;2024-03-29T06:53:25;94682.69;;;16.52;50.03
32243;BME280;18731;42.830;24.390;2024-03-29T06:55:51;94694.22;;;16.98;48.31
32243;BME280;18731;42.830;24.390;2024-03-29T06:58:16;94663.03;;;17.27;47.24
32243;BME280;18731;42.830;24.390;2024-03-29T07:00:46;94663.53;;;17.66;45.05
32243;BME280;18731;42.830;24.390;2024-03-29T07:03:12;94677.41;;;18.02;45.68
32243;BME280;18731;42.830;24.390;2024-03-29T07:05:38;94696.03;;;18.48;42.16
32243;BME280;18731;42.830;24.390;2024-03-29T07:08:04;94702.47;;;18.77;41.46
32243;BME280;18731;42.830;24.390;2024-03-29T07:10:30;94685.06;;;18.71;40.77
32243;BME280;18731;42.830;24.390;2024-03-29T07:12:56;94702.66;;;19.02;39.67
32243;BME280;18731;42.830;24.390;2024-03-29T07:15:21;94694.22;;;19.10;37.61
32243;BME280;18731;42.830;24.390;2024-03-29T07:17:47;94690.09;;;19.31;39.06
32243;BME280;18731;42.830;24.390;2024-03-29T07:20:15;94697.66;;;19.73;39.03
32243;BME280;18731;42.830;24.390;2024-03-29T07:22:41;94671.84;;;20.00;37.81
32243;BME280;18731;42.830;24.390;2024-03-29T07:25:06;94680.81;;;20.29;34.93
32243;BME280;18731;42.830;24.390;2024-03-29T07:27:32;94690.94;;;20.46;35.73
32243;BME280;18731;42.830;24.390;2024-03-29T07:30:03;94698.69;;;20.59;35.57
32243;BME280;18731;42.830;24.390;2024-03-29T07:32:33;94658.00;;;20.66;35.73
32243;BME280;18731;42.830;24.390;2024-03-29T07:34:59;94683.19;;;20.70;36.57
32243;BME280;18731;42.830;24.390;2024-03-29T07:37:25;94675.84;;;21.09;34.44
32243;BME280;18731;42.830;24.390;2024-03-29T07:39:51;94659.16;;;21.11;35.53
32243;BME280;18731;42.830;24.390;2024-03-29T07:42:16;94681.66;;;20.90;32.74
32243;BME280;18731;42.830;24.390;2024-03-29T07:44:42;94684.00;;;20.88;33.31
32243;BME280;18731;42.830;24.390;2024-03-29T07:47:08;94694.81;;;21.16;33.02
32243;BME280;18731;42.830;24.390;2024-03-29T07:49:34;94686.28;;;21.36;31.48
32243;BME280;18731;42.830;24.390;2024-03-29T07:51:59;94691.72;;;21.36;31.94
32243;BME280;18731;42.830;24.390;2024-03-29T07:54:27;94692.50;;;21.29;33.97
32243;BME280;18731;42.830;24.390;2024-03-29T07:56:53;94688.63;;;21.05;31.68
32243;BME280;18731;42.830;24.390;2024-03-29T07:59:19;94675.44;;;20.54;31.60
32243;BME280;18731;42.830;24.390;2024-03-29T08:01:45;94690.56;;;20.62;32.42
32243;BME280;18731;42.830;24.390;2024-03-29T08:04:11;94685.94;;;20.91;32.50
32243;BME280;18731;42.830;24.390;2024-03-29T08:06:36;94690.16;;;20.78;31.74
32243;BME280;18731;42.830;24.390;2024-03-29T08:09:02;94687.09;;;20.83;32.44
32243;BME280;18731;42.830;24.390;2024-03-29T08:11:27;94709.19;;;20.85;31.51
32243;BME280;18731;42.830;24.390;2024-03-29T08:13:53;94700.66;;;21.01;31.56
32243;BME280;18731;42.830;24.390;2024-03-29T08:16:18;94692.50;;;21.36;30.19
32243;BME280;18731;42.830;24.390;2024-03-29T08:18:46;94685.44;;;21.60;31.15
32243;BME280;18731;42.830;24.390;2024-03-29T08:21:12;94673.41;;;21.61;29.42
32243;BME280;18731;42.830;24.390;2024-03-29T08:23:41;94659.47;;;21.56;29.90
32243;BME280;18731;42.830;24.390;2024-03-29T08:26:10;94672.63;;;21.61;29.83
32243;BME280;18731;42.830;24.390;2024-03-29T08:28:36;94674.88;;;21.83;32.53
32243;BME280;18731;42.830;24.390;2024-03-29T08:31:05;94675.63;;;21.91;29.99
32243;BME280;18731;42.830;24.390;2024-03-29T08:33:32;94665.63;;;21.67;29.19
32243;BME280;18731;42.830;24.390;2024-03-29T08:35:57;94684.56;;;21.85;29.36
32243;BME280;18731;42.830;24.390;2024-03-29T08:38:23;94667.78;;;22.11;29.27
32243;BME280;18731;42.830;24.390;2024-03-29T08:40:49;94668.78;;;22.38;30.36
32243;BME280;18731;42.830;24.390;2024-03-29T08:43:15;94661.63;;;22.59;30.36
32243;BME280;18731;42.830;24.390;2024-03-29T08:45:43;94659.09;;;22.89;28.35
32243;BME280;18731;42.830;24.390;2024-03-29T08:48:09;94673.69;;;23.09;31.58
32243;BME280;18731;42.830;24.390;2024-03-29T08:50:35;94669.63;;;23.25;29.39
32243;BME280;18731;42.830;24.390;2024-03-29T08:53:02;94669.00;;;23.55;28.01
32243;BME280;18731;42.830;24.390;2024-03-29T08:55:32;94661.00;;;23.33;27.16
32243;BME280;18731;42.830;24.390;2024-03-29T08:57:58;94667.06;;;23.10;27.80
32243;BME280;18731;42.830;24.390;2024-03-29T09:00:27;94655.06;;;23.46;29.26
32243;BME280;18731;42.830;24.390;2024-03-29T09:02:53;94655.00;;;23.49;28.36
32243;BME280;18731;42.830;24.390;2024-03-29T09:05:19;94652.81;;;23.75;27.00
32243;BME280;18731;42.830;24.390;2024-03-29T09:07:45;94649.22;;;23.81;27.18
32243;BME280;18731;42.830;24.390;2024-03-29T09:10:12;94649.31;;;23.74;26.06
32243;BME280;18731;42.830;24.390;2024-03-29T09:12:38;94640.81;;;23.68;26.27
32243;BME280;18731;42.830;24.390;2024-03-29T09:15:04;94648.63;;;23.66;26.62
32243;BME280;18731;42.830;24.390;2024-03-29T09:17:34;94635.16;;;24.13;26.26
32243;BME280;18731;42.830;24.390;2024-03-29T09:20:00;94624.78;;;24.31;25.73
32243;BME280;18731;42.830;24.390;2024-03-29T09:22:25;94612.38;;;24.77;27.87
32243;BME280;18731;42.830;24.390;2024-03-29T09:24:51;94613.94;;;24.28;25.63
32243;BME280;18731;42.830;24.390;2024-03-29T09:27:16;94610.44;;;24.27;26.99
32243;BME280;18731;42.830;24.390;2024-03-29T09:29:42;94612.06;;;24.48;27.30
32243;BME280;18731;42.830;24.390;2024-03-29T09:32:08;94606.78;;;24.38;26.29
32243;BME280;18731;42.830;24.390;2024-03-29T09:34:34;94614.28;;;24.30;26.19
32243;BME280;18731;42.830;24.390;2024-03-29T09:36:59;94613.97;;;24.51;28.31
32243;BME280;18731;42.830;24.390;2024-03-29T09:39:25;94611.91;;;24.59;26.26
32243;BME280;18731;42.830;24.390;2024-03-29T09:41:50;94597.00;;;24.63;25.70
32243;BME280;18731;42.830;24.390;2024-03-29T09:44:17;94572.25;;;24.97;28.81
32243;BME280;18731;42.830;24.390;2024-03-29T09:46:47;94569.75;;;25.46;27.19
32243;BME280;18731;42.830;24.390;2024-03-29T09:49:13;94586.16;;;25.86;24.28
32243;BME280;18731;42.830;24.390;2024-03-29T09:51:39;94581.28;;;25.93;23.77
32243;BME280;18731;42.830;24.390;2024-03-29T09:54:06;94577.28;;;25.98;23.53
32243;BME280;18731;42.830;24.390;2024-03-29T09:56:38;94576.53;;;26.34;24.34
32243;BME280;18731;42.830;24.390;2024-03-29T09:59:03;94574.81;;;26.40;24.50
32243;BME280;18731;42.830;24.390;2024-03-29T10:01:30;94582.53;;;26.45;27.44
32243;BME280;18731;42.830;24.390;2024-03-29T10:03:56;94560.09;;;25.98;23.75
32243;BME280;18731;42.830;24.390;2024-03-29T10:06:24;94558.97;;;25.79;23.31
32243;BME280;18731;42.830;24.390;2024-03-29T10:08:50;94553.94;;;26.30;24.16
32243;BME280;18731;42.830;24.390;2024-03-29T10:11:18;94558.75;;;26.58;24.49
32243;BME280;18731;42.830;24.390;2024-03-29T10:13:45;94533.59;;;26.47;23.89
32243;BME280;18731;42.830;24.390;2024-03-29T10:16:11;94553.50;;;26.80;22.95
32243;BME280;18731;42.830;24.390;2024-03-29T10:18:40;94518.44;;;26.58;23.59
32243;BME280;18731;42.830;24.390;2024-03-29T10:21:06;94545.25;;;26.96;22.06
32243;BME280;18731;42.830;24.390;2024-03-29T10:23:33;94522.31;;;27.06;25.16
32243;BME280;18731;42.830;24.390;2024-03-29T10:25:59;94523.75;;;27.11;23.52
32243;BME280;18731;42.830;24.390;2024-03-29T10:28:30;94530.31;;;26.68;22.52
32243;BME280;18731;42.830;24.390;2024-03-29T10:30:56;94539.56;;;26.74;23.12
32243;BME280;18731;42.830;24.390;2024-03-29T10:33:22;94535.31;;;26.57;24.01
32243;BME280;18731;42.830;24.390;2024-03-29T10:35:48;94534.13;;;26.42;24.91
32243;BME280;18731;42.830;24.390;2024-03-29T10:38:13;94536.69;;;26.33;22.77
32243;BME280;18731;42.830;24.390;2024-03-29T10:40:39;94529.31;;;26.46;24.09
32243;BME280;18731;42.830;24.390;2024-03-29T10:43:10;94528.59;;;26.74;22.72
32243;BME280;18731;42.830;24.390;2024-03-29T10:45:39;94532.84;;;26.91;25.99
32243;BME280;18731;42.830;24.390;2024-03-29T10:48:06;94527.03;;;27.06;23.23
32243;BME280;18731;42.830;24.390;2024-03-29T10:50:35;94520.94;;;27.27;24.07
32243;BME280;18731;42.830;24.390;2024-03-29T10:53:02;94526.75;;;27.29;24.44
32243;BME280;18731;42.830;24.390;2024-03-29T10:55:33;94514.13;;;27.61;23.17
32243;BME280;18731;42.830;24.390;2024-03-29T10:58:00;94521.72;;;27.82;22.90
32243;BME280;18731;42.830;24.390;2024-03-29T11:00:28;94505.69;;;27.68;23.59
32243;BME280;18731;42.830;24.390;2024-03-29T11:03:20;94513.72;;;27.88;22.52
32243;BME280;18731;42.830;24.390;2024-03-29T11:05:49;94514.81;;;27.65;22.70
32243;BME280;18731;42.830;24.390;2024-03-29T11:08:26;94496.81;;;27.22;22.57
32243;BME280;18731;42.830;24.390;2024-03-29T11:10:55;94510.88;;;27.78;22.01
32243;BME280;18731;42.830;24.390;2024-03-29T11:13:58;94497.69;;;28.11;22.17
32243;BME280;18731;42.830;24.390;2024-03-29T11:16:27;94496.72;;;27.80;21.14
32243;BME280;18731;42.830;24.390;2024-03-29T11:18:53;94505.81;;;27.22;21.53
32243;BME280;18731;42.830;24.390;2024-03-29T11:21:19;94495.19;;;27.25;22.38
32243;BME280;18731;42.830;24.390;2024-03-29T11:23:49;94489.91;;;27.72;23.40
32243;BME280;18731;42.830;24.390;2024-03-29T11:26:16;94487.69;;;28.30;22.72
32243;BME280;18731;42.830;24.390;2024-03-29T11:28:48;94480.78;;;28.86;21.13
32243;BME280;18731;42.830;24.390;2024-03-29T11:31:15;94482.19;;;28.43;20.73
32243;BME280;18731;42.830;24.390;2024-03-29T11:38:48;94467.44;;;28.62;21.85
32243;BME280;18731;42.830;24.390;2024-03-29T11:41:16;94462.66;;;28.88;23.80
32243;BME280;18731;42.830;24.390;2024-03-29T11:43:43;94451.59;;;29.01;21.25
32243;BME280;18731;42.830;24.390;2024-03-29T11:46:11;94454.09;;;29.08;20.79
32243;BME280;18731;42.830;24.390;2024-03-29T11:48:36;94464.19;;;29.11;21.08
32243;BME280;18731;42.830;24.390;2024-03-29T11:51:03;94457.97;;;28.98;21.23
32243;BME280;18731;42.830;24.390;2024-03-29T11:53:30;94457.53;;;29.21;21.95
32243;BME280;18731;42.830;24.390;2024-03-29T11:56:01;94460.78;;;29.29;20.63
32243;BME280;18731;42.830;24.390;2024-03-29T11:58:28;94457.91;;;29.32;22.06
32243;BME280;18731;42.830;24.390;2024-03-29T12:00:55;94460.81;;;29.60;20.01
32243;BME280;18731;42.830;24.390;2024-03-29T12:03:24;94451.28;;;29.83;21.05
32243;BME280;18731;42.830;24.390;2024-03-29T12:05:51;94453.63;;;29.31;20.85
32243;BME280;18731;42.830;24.390;2024-03-29T12:08:20;94446.91;;;29.32;21.41
32243;BME280;18731;42.830;24.390;2024-03-29T12:10:45;94442.13;;;29.24;21.12
32243;BME280;18731;42.830;24.390;2024-03-29T12:13:11;94439.03;;;28.78;21.39
32243;BME280;18731;42.830;24.390;2024-03-29T12:15:37;94451.53;;;28.92;22.25
32243;BME280;18731;42.830;24.390;2024-03-29T12:18:04;94447.00;;;28.63;21.31
32243;BME280;18731;42.830;24.390;2024-03-29T12:20:34;94420.41;;;28.26;21.20
32243;BME280;18731;42.830;24.390;2024-03-29T12:23:05;94441.19;;;28.61;22.97
32243;BME280;18731;42.830;24.390;2024-03-29T12:25:40;94439.00;;;28.91;22.72
32243;BME280;18731;42.830;24.390;2024-03-29T12:28:06;94436.56;;;28.58;20.67
32243;BME280;18731;42.830;24.390;2024-03-29T12:30:32;94433.53;;;28.43;21.17
32243;BME280;18731;42.830;24.390;2024-03-29T12:33:04;94440.44;;;28.48;21.20
32243;BME280;18731;42.830;24.390;2024-03-29T12:35:52;94430.03;;;28.77;20.61
32243;BME280;18731;42.830;24.390;2024-03-29T12:38:20;94405.50;;;28.61;21.95
32243;BME280;18731;42.830;24.390;2024-03-29T12:40:47;94427.75;;;28.29;21.93
32243;BME280;18731;42.830;24.390;2024-03-29T12:43:14;94429.38;;;28.39;21.65
32243;BME280;18731;42.830;24.390;2024-03-29T12:45:42;94426.38;;;28.46;20.96
32243;BME280;18731;42.830;24.390;2024-03-29T12:48:15;94427.59;;;28.45;24.08
32243;BME280;18731;42.830;24.390;2024-03-29T12:50:43;94422.81;;;28.36;22.51
32243;BME280;18731;42.830;24.390;2024-03-29T12:53:10;94411.94;;;28.20;21.18
32243;BME280;18731;42.830;24.390;2024-03-29T12:55:48;94406.16;;;28.05;22.33
32243;BME280;18731;42.830;24.390;2024-03-29T12:58:15;94431.22;;;28.42;23.34
32243;BME280;18731;42.830;24.390;2024-03-29T13:00:42;94413.56;;;28.43;21.70